Time;durP1;ratioP1;P1;durP2;ratioP2;P2;SDS_P1;SDS_P2;PMS_P1;PMS_P2;Temp;Humidity;BMP_temperature;BMP_pressure;BME280_temperature;BME280_humidity;BME280_pressure;Samples;Min_cycle;Max_cycle;Signal;HPM_P1;HPM_P2
2023/12/21 00:02:07;;;;;;;9.95;2.55;;;13.10;78.40;;;;;;4966407;28;20038;-35
2023/12/21 00:04:33;;;;;;;7.20;2.47;;;14.10;81.20;;;;;;4969751;28;20117;-37
2023/12/21 00:06:59;;;;;;;8.73;2.42;;;13.30;74.90;;;;;;4963822;28;20061;-38
2023/12/21 00:09:24;;;;;;;11.05;2.92;;;13.60;81.00;;;;;;4967521;28;20042;-38
2023/12/21 00:11:50;;;;;;;8.63;2.30;;;;;;;;;;4966395;28;20038;-35
2023/12/21 00:14:16;;;;;;;8.98;2.20;;;13.50;77.20;;;;;;4968615;28;20043;-38
2023/12/21 00:16:42;;;;;;;9.85;2.83;;;13.10;75.20;;;;;;4968564;28;20394;-35
2023/12/21 00:19:07;;;;;;;10.05;2.47;;;13.20;82.00;;;;;;4968337;28;20170;-38
2023/12/21 00:21:33;;;;;;;8.43;2.40;;;14.00;81.10;;;;;;4970381;28;20035;-35
2023/12/21 00:23:58;;;;;;;8.73;2.33;;;13.90;75.60;;;;;;4966656;28;20031;-35
2023/12/21 00:26:24;;;;;;;9.45;3.20;;;13.70;80.70;;;;;;4970274;28;20042;-36
2023/12/21 00:28:49;;;;;;;8.15;2.25;;;13.80;79.60;;;;;;4965674;28;20039;-34
2023/12/21 00:31:15;;;;;;;10.07;2.47;;;14.00;76.00;;;;;;4970463;28;20062;-38
2023/12/21 00:33:41;;;;;;;8.07;2.30;;;13.30;74.50;;;;;;4967529;28;20410;-38
2023/12/21 00:36:06;;;;;;;7.40;2.00;;;13.70;78.60;;;;;;4970240;28;20067;-37
2023/12/21 00:38:32;;;;;;;8.88;2.20;;;13.70;78.70;;;;;;4967805;28;20598;-36
2023/12/21 00:40:59;;;;;;;10.75;2.33;;;13.40;79.10;;;;;;4967581;28;20038;-35
2023/12/21 00:43:25;;;;;;;8.15;2.10;;;14.00;74.70;;;;;;4972390;28;20386;-37
2023/12/21 00:45:50;;;;;;;7.70;1.98;;;13.70;81.10;;;;;;4967360;28;20358;-36
2023/12/21 00:48:17;;;;;;;6.57;2.28;;;13.50;79.00;;;;;;4967471;28;20054;-37
2023/12/21 00:50:42;;;;;;;7.88;2.05;;;13.50;75.30;;;;;;4966181;28;20449;-35
2023/12/21 00:53:08;;;;;;;7.68;2.38;;;14.00;72.60;;;;;;4982011;28;20038;-35
2023/12/21 00:55:34;;;;;;;9.35;3.53;;;13.90;78.40;;;;;;4965623;28;20047;-37
2023/12/21 00:57:59;;;;;;;8.38;2.13;;;13.80;74.80;;;;;;4969487;28;20529;-38
2023/12/21 01:00:25;;;;;;;9.15;2.60;;;13.90;85.60;;;;;;4969059;28;20045;-34
2023/12/21 01:02:51;;;;;;;10.40;3.40;;;13.70;77.20;;;;;;4964333;28;20507;-38
2023/12/21 01:05:16;;;;;;;10.05;2.28;;;13.10;74.90;;;;;;4969435;28;20042;-36
2023/12/21 01:07:42;;;;;;;9.93;2.47;;;13.10;72.80;;;;;;4964662;28;20101;-41
2023/12/21 01:10:08;;;;;;;8.80;2.13;;;13.70;77.70;;;;;;4965247;28;20042;-34
2023/12/21 01:12:34;;;;;;;10.35;2.22;;;13.60;70.70;;;;;;4967277;28;20034;-37
2023/12/21 01:15:01;;;;;;;8.50;2.40;;;13.70;70.80;;;;;;4967705;28;20271;-35
2023/12/21 01:17:27;;;;;;;8.90;2.15;;;13.60;77.00;;;;;;4965434;28;20058;-37
2023/12/21 01:19:52;;;;;;;10.93;2.83;;;13.70;74.30;;;;;;4981634;28;20051;-38
2023/12/21 01:22:19;;;;;;;7.10;2.03;;;13.50;73.60;;;;;;4967596;28;20165;-34
2023/12/21 01:24:45;;;;;;;10.73;2.38;;;13.30;67.60;;;;;;4968619;28;20038;-39
2023/12/21 01:27:10;;;;;;;9.70;2.28;;;14.00;73.40;;;;;;4969353;28;20101;-38
2023/12/21 01:29:36;;;;;;;6.50;2.00;;;13.40;72.70;;;;;;4964537;28;20051;-35
2023/12/21 01:32:02;;;;;;;9.15;2.20;;;13.60;67.70;;;;;;4969125;28;20086;-35
2023/12/21 01:34:27;;;;;;;9.30;2.20;;;13.60;67.10;;;;;;4968331;28;20128;-38
2023/12/21 01:36:53;;;;;;;7.70;2.15;;;13.50;69.60;;;;;;4972577;28;20149;-37
2023/12/21 01:39:19;;;;;;;7.38;2.10;;;13.70;67.50;;;;;;4972467;28;20054;-35
2023/12/21 01:41:44;;;;;;;7.60;2.00;;;14.00;62.00;;;;;;4974133;28;20034;-34
2023/12/21 01:44:10;;;;;;;8.00;1.70;;;14.00;66.60;;;;;;4971930;28;20388;-38
2023/12/21 01:46:35;;;;;;;7.53;2.13;;;13.70;60.90;;;;;;4969619;28;20039;-35
2023/12/21 01:49:02;;;;;;;7.47;2.25;;;13.40;56.70;;;;;;4970081;28;20039;-35
2023/12/21 01:51:28;;;;;;;9.70;2.30;;;13.80;55.90;;;;;;4969790;28;20407;-37
2023/12/21 01:53:55;;;;;;;5.50;1.92;;;13.40;53.80;;;;;;4970253;28;20070;-38
2023/12/21 01:56:21;;;;;;;6.88;2.22;;;13.40;54.50;;;;;;4966290;28;20098;-37
2023/12/21 01:58:53;;;;;;;6.38;1.80;;;;;;;;;;4969484;28;20431;-35
2023/12/21 02:01:19;;;;;;;10.43;2.53;;;13.80;31.80;;;;;;4970353;28;20475;-36
2023/12/21 02:03:45;;;;;;;8.65;2.10;;;14.30;60.70;;;;;;4972700;28;20035;-36
2023/12/21 02:06:11;;;;;;;9.10;2.50;;;13.80;55.00;;;;;;4968534;28;20046;-37
2023/12/21 02:08:37;;;;;;;8.15;2.53;;;13.30;54.90;;;;;;4968627;28;20175;-37
2023/12/21 02:11:07;;;;;;;8.32;2.45;;;;;;;;;;4971306;28;20038;-35
2023/12/21 02:13:33;;;;;;;6.55;1.83;;;13.30;37.10;;;;;;4972352;28;20038;-35
2023/12/21 02:16:05;;;;;;;7.28;1.90;;;13.20;42.70;;;;;;4970662;28;20050;-35
2023/12/21 02:18:31;;;;;;;6.97;1.85;;;13.10;21.10;;;;;;4967894;28;20039;-35
2023/12/21 02:20:58;;;;;;;8.63;2.33;;;13.60;40.50;;;;;;4969263;28;20112;-36
2023/12/21 02:23:26;;;;;;;8.63;2.35;;;13.90;39.10;;;;;;4969366;28;20069;-34
2023/12/21 02:25:53;;;;;;;6.13;1.80;;;13.20;38.50;;;;;;4969537;28;20050;-37
2023/12/21 02:28:18;;;;;;;7.60;2.20;;;13.50;42.40;;;;;;4969853;28;20062;-37
2023/12/21 02:30:47;;;;;;;8.05;2.65;;;;;;;;;;4971345;28;20035;-35
2023/12/21 02:33:13;;;;;;;8.68;2.20;;;13.80;12.90;;;;;;4972898;28;20521;-35
2023/12/21 02:35:39;;;;;;;6.75;2.15;;;13.90;41.50;;;;;;4966897;28;20114;-38
2023/12/21 02:38:05;;;;;;;8.18;2.00;;;13.30;32.40;;;;;;4971096;28;20126;-37
2023/12/21 02:40:30;;;;;;;7.25;2.13;;;13.80;35.80;;;;;;4964712;28;20038;-35
2023/12/21 02:42:56;;;;;;;9.20;2.10;;;13.80;29.90;;;;;;4976131;28;20049;-36
2023/12/21 02:45:22;;;;;;;7.35;2.20;;;13.70;29.90;;;;;;4964626;28;20042;-36
2023/12/21 02:47:47;;;;;;;7.82;2.20;;;13.60;43.50;;;;;;4968325;28;20063;-38
2023/12/21 02:50:13;;;;;;;7.60;2.03;;;13.90;34.00;;;;;;4971144;28;20041;-36
2023/12/21 02:52:39;;;;;;;9.27;2.08;;;13.90;31.40;;;;;;4966548;28;20030;-38
2023/12/21 02:55:05;;;;;;;9.63;2.03;;;13.20;27.90;;;;;;4969261;28;20085;-37
2023/12/21 02:57:30;;;;;;;7.78;2.00;;;13.30;28.50;;;;;;4965096;28;20092;-34
2023/12/21 02:59:56;;;;;;;8.25;2.28;;;13.80;30.90;;;;;;4970428;28;20042;-39
2023/12/21 03:02:21;;;;;;;6.55;2.00;;;14.00;32.10;;;;;;4968080;28;20086;-35
2023/12/21 03:04:47;;;;;;;6.85;2.05;;;13.30;27.70;;;;;;4969836;28;20034;-35
2023/12/21 03:07:12;;;;;;;10.07;2.00;;;13.90;31.50;;;;;;4976377;28;20079;-36
2023/12/21 03:09:38;;;;;;;6.90;1.77;;;13.90;27.40;;;;;;4966782;28;20109;-35
2023/12/21 03:12:04;;;;;;;6.05;1.63;;;13.80;30.30;;;;;;4967700;28;20146;-37
2023/12/21 03:14:30;;;;;;;7.45;2.00;;;13.70;23.80;;;;;;4961832;28;20427;-37
2023/12/21 03:16:55;;;;;;;7.38;2.03;;;14.00;25.70;;;;;;4966119;28;20077;-36
2023/12/21 03:19:21;;;;;;;9.68;2.50;;;13.80;29.00;;;;;;4967072;28;20241;-38
2023/12/21 03:21:47;;;;;;;8.82;2.30;;;13.70;27.70;;;;;;4966182;28;20566;-35
2023/12/21 03:24:13;;;;;;;7.20;2.15;;;13.60;30.20;;;;;;4965595;28;20043;-34
2023/12/21 03:26:38;;;;;;;7.00;2.30;;;13.80;24.60;;;;;;4971040;28;20044;-35
2023/12/21 03:29:04;;;;;;;6.70;1.90;;;13.60;28.30;;;;;;4969723;28;20101;-35
2023/12/21 03:31:29;;;;;;;9.73;2.00;;;13.80;27.50;;;;;;4943683;28;20086;-38
2023/12/21 03:33:55;;;;;;;6.85;2.30;;;13.80;23.80;;;;;;4971775;28;20055;-35
2023/12/21 03:36:21;;;;;;;7.03;1.88;;;13.80;28.00;;;;;;4966338;28;20558;-35
2023/12/21 03:38:46;;;;;;;5.85;1.63;;;13.90;27.60;;;;;;4969619;28;20047;-37
2023/12/21 03:41:12;;;;;;;6.22;2.20;;;13.80;28.00;;;;;;4969075;28;20046;-35
2023/12/21 03:43:37;;;;;;;7.55;1.98;;;14.10;28.70;;;;;;4973248;28;20070;-34
2023/12/21 03:46:07;;;;;;;9.10;1.98;;;13.90;26.50;;;;;;4967126;28;20055;-35
2023/12/21 03:48:32;;;;;;;6.22;1.98;;;13.70;31.20;;;;;;4965240;28;20777;-37
2023/12/21 03:50:58;;;;;;;6.40;1.90;;;13.60;32.10;;;;;;4970123;28;20042;-35
2023/12/21 03:53:24;;;;;;;8.30;2.05;;;13.00;34.90;;;;;;4970124;28;20051;-37
2023/12/21 03:55:49;;;;;;;9.10;2.38;;;13.90;32.40;;;;;;4962638;28;20051;-35
2023/12/21 03:58:15;;;;;;;8.45;2.10;;;14.10;35.90;;;;;;4966984;28;20105;-39
2023/12/21 04:00:40;;;;;;;6.10;1.75;;;13.90;40.70;;;;;;4968133;28;20077;-34
2023/12/21 04:03:06;;;;;;;7.82;1.88;;;13.20;43.80;;;;;;4971083;28;20463;-35
2023/12/21 04:05:32;;;;;;;8.10;1.95;;;13.40;49.20;;;;;;4970806;28;20046;-36
2023/12/21 04:07:57;;;;;;;7.40;2.00;;;14.10;57.70;;;;;;4968476;28;20093;-34
2023/12/21 04:10:23;;;;;;;6.80;1.80;;;13.60;56.00;;;;;;4963474;28;20034;-34
2023/12/21 04:12:48;;;;;;;6.20;1.73;;;14.20;63.40;;;;;;4971338;28;20311;-34
2023/12/21 04:15:16;;;;;;;7.72;2.08;;;13.90;69.70;;;;;;4967949;28;20403;-37
2023/12/21 04:17:42;;;;;;;7.97;2.17;;;13.70;78.90;;;;;;4952744;28;20049;-35
2023/12/21 04:20:09;;;;;;;7.72;2.67;;;14.10;80.60;;;;;;4970309;28;20047;-34
2023/12/21 04:22:35;;;;;;;7.53;1.80;;;13.80;84.50;;;;;;4970010;28;20085;-36
2023/12/21 04:25:00;;;;;;;6.88;1.85;;;13.60;91.10;;;;;;4969634;28;20034;-35
2023/12/21 04:27:26;;;;;;;8.43;2.20;;;13.60;92.90;;;;;;4969653;28;20649;-35
2023/12/21 04:29:52;;;;;;;7.80;1.90;;;13.80;90.90;;;;;;4969017;28;20395;-36
2023/12/21 04:32:19;;;;;;;8.68;2.42;;;13.70;94.60;;;;;;4965660;28;21451;-35
2023/12/21 04:34:44;;;;;;;6.20;1.70;;;13.70;98.30;;;;;;4969804;28;20091;-35
2023/12/21 04:37:10;;;;;;;8.38;2.05;;;13.70;99.70;;;;;;4966556;28;20047;-35
2023/12/21 04:39:35;;;;;;;6.78;2.00;;;13.90;99.90;;;;;;4963836;28;20046;-36
2023/12/21 04:42:02;;;;;;;9.80;2.30;;;14.40;99.90;;;;;;4967683;28;20035;-36
2023/12/21 04:44:28;;;;;;;8.23;2.03;;;13.60;99.90;;;;;;4965375;28;20090;-37
2023/12/21 04:46:53;;;;;;;7.70;2.63;;;13.40;99.90;;;;;;4964868;28;20074;-37
2023/12/21 04:49:22;;;;;;;6.88;1.92;;;14.60;99.90;;;;;;4966533;28;20458;-34
2023/12/21 04:51:48;;;;;;;9.18;2.47;;;13.30;99.90;;;;;;4967325;28;20066;-37
2023/12/21 04:54:14;;;;;;;7.75;2.15;;;14.10;99.90;;;;;;4967271;28;20077;-34
2023/12/21 04:56:41;;;;;;;6.75;2.25;;;14.20;99.90;;;;;;4965744;28;20097;-38
2023/12/21 04:59:07;;;;;;;6.53;2.03;;;13.80;99.90;;;;;;4969823;28;20051;-36
2023/12/21 05:01:33;;;;;;;10.23;2.03;;;14.60;99.90;;;;;;4969165;28;20046;-37
2023/12/21 05:03:59;;;;;;;8.32;2.00;;;13.40;99.90;;;;;;4963488;28;20039;-37
2023/12/21 05:06:25;;;;;;;7.47;2.17;;;14.20;99.90;;;;;;4962405;28;20039;-34
2023/12/21 05:08:51;;;;;;;10.50;2.20;;;14.20;99.90;;;;;;4967505;28;20045;-38
2023/12/21 05:11:17;;;;;;;6.70;1.80;;;14.10;99.90;;;;;;4969361;28;20041;-38
2023/12/21 05:13:43;;;;;;;7.90;2.80;;;14.20;99.90;;;;;;4963024;28;20109;-37
2023/12/21 05:16:08;;;;;;;7.57;1.90;;;13.80;99.90;;;;;;4969079;28;20031;-34
2023/12/21 05:18:36;;;;;;;8.32;1.92;;;14.30;99.90;;;;;;4966809;28;20046;-39
2023/12/21 05:21:02;;;;;;;8.70;2.53;;;13.90;99.90;;;;;;4968914;28;20122;-36
2023/12/21 05:23:27;;;;;;;8.55;2.35;;;14.20;99.90;;;;;;4967784;28;20907;-34
2023/12/21 05:25:53;;;;;;;7.50;2.55;;;14.20;99.90;;;;;;4968407;28;20085;-34
2023/12/21 05:28:19;;;;;;;7.88;2.10;;;14.10;99.90;;;;;;4967648;28;20038;-36
2023/12/21 05:30:44;;;;;;;7.28;2.30;;;14.40;99.90;;;;;;4965407;28;20041;-35
2023/12/21 05:33:10;;;;;;;7.78;2.20;;;14.10;99.90;;;;;;4967855;28;20038;-37
2023/12/21 05:35:35;;;;;;;7.22;1.92;;;14.20;99.90;;;;;;4967893;28;20034;-34
2023/12/21 05:38:01;;;;;;;8.95;2.40;;;14.30;99.90;;;;;;4969761;28;20034;-40
2023/12/21 05:40:27;;;;;;;7.22;2.13;;;13.70;99.90;;;;;;4964896;28;20058;-36
2023/12/21 05:42:53;;;;;;;7.18;1.83;;;14.10;99.90;;;;;;4961119;28;20118;-40
2023/12/21 05:45:19;;;;;;;10.02;2.25;;;13.90;99.90;;;;;;4965241;28;20502;-38
2023/12/21 05:47:44;;;;;;;11.05;2.40;;;14.10;99.90;;;;;;4969889;28;20046;-35
2023/12/21 05:50:10;;;;;;;37.95;10.73;;;14.10;99.90;;;;;;4968598;28;20039;-35
2023/12/21 05:52:36;;;;;;;33.42;9.95;;;13.70;99.90;;;;;;4967224;28;20573;-41
2023/12/21 05:55:02;;;;;;;33.05;9.88;;;14.00;99.90;;;;;;4967288;28;20509;-34
2023/12/21 05:57:28;;;;;;;29.50;7.72;;;14.50;99.90;;;;;;4964684;28;20034;-35
2023/12/21 05:59:53;;;;;;;21.25;5.88;;;14.50;99.90;;;;;;4966058;28;20039;-36
2023/12/21 06:02:20;;;;;;;20.75;5.30;;;14.40;99.90;;;;;;4964621;28;20503;-34
2023/12/21 06:04:45;;;;;;;20.05;5.85;;;14.70;99.90;;;;;;4961220;28;20394;-38
2023/12/21 06:07:11;;;;;;;24.60;7.93;;;14.30;99.90;;;;;;4955647;28;20035;-34
2023/12/21 06:09:37;;;;;;;18.23;5.53;;;14.60;99.90;;;;;;4966297;28;20050;-35
2023/12/21 06:12:03;;;;;;;18.90;5.53;;;14.30;99.90;;;;;;4962475;28;20515;-38
2023/12/21 06:14:29;;;;;;;19.75;4.53;;;14.10;99.90;;;;;;4962162;28;20071;-35
2023/12/21 06:16:55;;;;;;;17.35;5.47;;;14.90;99.90;;;;;;4960868;28;20034;-35
2023/12/21 06:19:20;;;;;;;15.90;4.53;;;14.30;99.90;;;;;;4957722;28;20042;-36
2023/12/21 06:21:46;;;;;;;16.45;4.57;;;15.30;99.90;;;;;;4967037;28;20470;-34
2023/12/21 06:24:11;;;;;;;16.08;4.65;;;14.90;99.90;;;;;;4969815;28;20039;-34
2023/12/21 06:26:41;;;;;;;9.13;3.60;;;14.40;99.90;;;;;;4967053;28;20038;-35
2023/12/21 06:29:08;;;;;;;11.68;3.78;;;14.50;99.90;;;;;;4965279;28;20039;-36
2023/12/21 06:31:33;;;;;;;15.57;4.30;;;14.50;99.90;;;;;;4978629;28;20086;-35
2023/12/21 06:33:59;;;;;;;10.50;3.15;;;14.20;99.90;;;;;;4964496;28;20039;-37
2023/12/21 06:36:25;;;;;;;10.15;2.97;;;14.20;99.90;;;;;;4963479;28;20049;-35
2023/12/21 06:38:52;;;;;;;9.45;2.97;;;14.70;99.90;;;;;;4953631;28;20050;-35
2023/12/21 06:41:17;;;;;;;9.88;2.58;;;14.50;99.90;;;;;;4961170;28;20051;-35
2023/12/21 06:43:43;;;;;;;10.82;3.22;;;13.70;99.90;;;;;;4974853;28;20057;-35
2023/12/21 06:46:13;;;;;;;12.57;2.92;;;14.50;99.90;;;;;;4966656;28;20073;-35
2023/12/21 06:48:39;;;;;;;9.85;3.03;;;14.20;99.90;;;;;;4983475;28;20042;-35
2023/12/21 06:51:05;;;;;;;9.40;2.70;;;13.50;99.90;;;;;;4961185;28;21272;-35
2023/12/21 06:53:30;;;;;;;9.18;3.08;;;14.30;99.90;;;;;;4961988;28;20042;-35
2023/12/21 06:55:56;;;;;;;7.38;2.30;;;14.10;99.90;;;;;;4965936;28;20506;-38
2023/12/21 06:58:24;;;;;;;8.50;2.60;;;14.20;99.90;;;;;;4961626;28;20043;-35
2023/12/21 07:00:50;;;;;;;9.13;2.70;;;13.30;99.90;;;;;;4971536;28;20397;-35
2023/12/21 07:03:15;;;;;;;6.97;2.38;;;13.50;99.90;;;;;;4962194;28;20122;-34
2023/12/21 07:05:41;;;;;;;10.65;3.33;;;13.80;99.90;;;;;;4966030;28;20491;-36
2023/12/21 07:08:07;;;;;;;8.82;3.03;;;13.80;99.90;;;;;;4962197;28;20126;-37
2023/12/21 07:10:32;;;;;;;9.93;2.65;;;14.20;99.90;;;;;;4970832;28;20043;-37
2023/12/21 07:12:58;;;;;;;7.90;2.50;;;14.00;99.90;;;;;;4961632;28;20495;-35
2023/12/21 07:15:23;;;;;;;9.65;2.90;;;14.00;99.90;;;;;;4965116;28;20046;-35
2023/12/21 07:17:49;;;;;;;10.13;3.38;;;13.80;99.90;;;;;;4967138;28;20039;-38
2023/12/21 07:20:15;;;;;;;9.60;2.78;;;13.90;99.90;;;;;;4964565;28;20598;-39
2023/12/21 07:22:41;;;;;;;12.88;2.75;;;13.50;99.90;;;;;;4983385;28;20450;-34
2023/12/21 07:25:07;;;;;;;11.73;3.42;;;13.90;99.90;;;;;;4957802;28;20042;-35
2023/12/21 07:27:33;;;;;;;11.00;3.33;;;14.00;99.90;;;;;;4969455;28;20537;-37
2023/12/21 07:29:59;;;;;;;14.23;3.20;;;13.60;99.90;;;;;;4960619;28;20080;-41
2023/12/21 07:32:24;;;;;;;14.45;3.80;;;13.90;99.90;;;;;;4957315;28;20047;-35
2023/12/21 07:34:50;;;;;;;11.40;2.90;;;13.90;99.90;;;;;;4961622;28;20561;-37
2023/12/21 07:37:16;;;;;;;11.13;3.17;;;13.50;99.90;;;;;;4965044;28;20046;-35
2023/12/21 07:39:42;;;;;;;11.93;2.83;;;13.10;99.90;;;;;;4965020;28;20490;-35
2023/12/21 07:42:08;;;;;;;10.93;3.28;;;13.80;99.90;;;;;;4960770;28;20042;-37
2023/12/21 07:44:35;;;;;;;11.88;3.22;;;13.50;99.90;;;;;;4965427;28;20401;-35
2023/12/21 07:47:02;;;;;;;13.10;3.50;;;13.20;99.90;;;;;;4959640;28;20376;-35
2023/12/21 07:49:28;;;;;;;13.43;3.28;;;13.30;99.90;;;;;;4958254;28;20407;-38
2023/12/21 07:51:53;;;;;;;13.05;3.05;;;13.10;99.90;;;;;;4952082;28;20053;-38
2023/12/21 07:54:19;;;;;;;10.68;3.17;;;13.60;99.90;;;;;;4957076;28;20040;-38
2023/12/21 07:56:45;;;;;;;13.50;3.92;;;13.20;99.90;;;;;;4964255;28;20418;-40
2023/12/21 07:59:11;;;;;;;11.52;2.75;;;13.00;99.90;;;;;;4960196;28;20283;-35
2023/12/21 08:01:36;;;;;;;11.32;3.60;;;13.20;99.90;;;;;;4962263;28;20213;-39
2023/12/21 08:04:02;;;;;;;16.23;4.03;;;13.30;99.90;;;;;;4966868;28;20051;-39
2023/12/21 08:06:28;;;;;;;15.05;3.72;;;13.40;99.90;;;;;;4961318;28;20046;-37
2023/12/21 08:08:53;;;;;;;12.30;3.47;;;13.20;99.90;;;;;;4978821;28;20053;-41
2023/12/21 08:11:20;;;;;;;13.20;3.53;;;13.50;99.90;;;;;;4958483;28;20526;-35
2023/12/21 08:13:46;;;;;;;14.80;3.45;;;13.80;99.90;;;;;;4963849;28;20078;-37
2023/12/21 08:16:12;;;;;;;18.27;4.10;;;12.90;99.90;;;;;;4957842;28;20499;-35
2023/12/21 08:18:38;;;;;;;18.88;4.68;;;12.90;99.90;;;;;;4964182;28;20124;-36
2023/12/21 08:21:03;;;;;;;13.02;3.40;;;12.90;99.90;;;;;;4961615;28;20122;-35
2023/12/21 08:23:29;;;;;;;11.98;3.22;;;12.70;99.90;;;;;;4957636;28;20042;-36
2023/12/21 08:25:55;;;;;;;13.55;4.35;;;13.50;99.90;;;;;;4961696;28;20070;-37
2023/12/21 08:28:20;;;;;;;10.50;3.53;;;13.10;99.90;;;;;;4959182;28;20042;-35
2023/12/21 08:30:46;;;;;;;13.60;4.03;;;13.00;99.90;;;;;;4964586;28;20967;-37
2023/12/21 08:33:12;;;;;;;11.77;3.25;;;13.00;99.90;;;;;;4959753;28;20074;-35
2023/12/21 08:35:37;;;;;;;17.70;3.88;;;13.40;99.90;;;;;;4960883;28;20309;-37
2023/12/21 08:38:03;;;;;;;13.20;3.70;;;12.90;99.90;;;;;;4963803;28;20043;-37
2023/12/21 08:40:29;;;;;;;13.30;4.05;;;13.10;99.90;;;;;;4954014;28;20057;-41
2023/12/21 08:42:55;;;;;;;14.40;3.67;;;;;;;;;;4956546;28;20117;-35
2023/12/21 08:45:21;;;;;;;11.40;3.05;;;13.00;99.90;;;;;;4962977;28;20038;-38
2023/12/21 08:47:47;;;;;;;16.63;3.90;;;12.70;99.90;;;;;;4957388;28;20105;-35
2023/12/21 08:50:13;;;;;;;17.45;3.80;;;12.70;99.90;;;;;;4965250;28;20030;-35
2023/12/21 08:52:39;;;;;;;12.10;3.67;;;12.80;99.90;;;;;;4966231;28;20033;-38
2023/12/21 08:55:05;;;;;;;13.30;3.63;;;12.70;99.90;;;;;;4982482;28;20335;-36
2023/12/21 08:57:35;;;;;;;16.67;3.47;;;12.50;99.90;;;;;;4964862;28;20076;-41
2023/12/21 09:00:04;;;;;;;13.48;2.92;;;13.20;99.90;;;;;;4970106;28;20522;-35
2023/12/21 09:02:29;;;;;;;14.70;3.80;;;12.90;99.90;;;;;;4966022;28;20517;-40
2023/12/21 09:04:55;;;;;;;13.93;3.47;;;12.90;99.90;;;;;;4962751;28;20035;-35
2023/12/21 09:07:21;;;;;;;15.15;3.50;;;12.50;99.90;;;;;;4964054;28;20551;-38
2023/12/21 09:09:46;;;;;;;15.18;3.45;;;12.70;99.90;;;;;;4966783;28;20491;-35
2023/12/21 09:12:12;;;;;;;15.38;4.15;;;12.80;99.90;;;;;;4967886;28;20043;-37
2023/12/21 09:14:37;;;;;;;12.68;3.92;;;13.00;99.90;;;;;;4963249;28;20490;-38
2023/12/21 09:17:04;;;;;;;13.50;4.00;;;12.70;99.90;;;;;;4965365;28;20470;-35
2023/12/21 09:19:29;;;;;;;15.20;3.83;;;12.90;99.90;;;;;;4963794;28;20131;-39
2023/12/21 09:21:55;;;;;;;16.20;3.05;;;13.40;99.90;;;;;;4967975;28;20113;-35
2023/12/21 09:24:21;;;;;;;13.77;3.10;;;12.90;99.90;;;;;;4964657;28;20107;-35
2023/12/21 09:26:46;;;;;;;12.38;3.22;;;13.20;99.90;;;;;;4963494;28;20043;-35
2023/12/21 09:29:13;;;;;;;20.70;3.92;;;12.80;99.90;;;;;;4966148;28;20047;-37
2023/12/21 09:31:39;;;;;;;14.48;3.25;;;13.00;99.90;;;;;;4960531;28;20049;-40
2023/12/21 09:34:07;;;;;;;12.95;3.58;;;13.50;99.90;;;;;;4957195;28;20331;-36
2023/12/21 09:36:33;;;;;;;11.80;3.22;;;12.70;99.90;;;;;;4966387;28;20121;-41
2023/12/21 09:38:58;;;;;;;11.77;3.42;;;13.30;99.90;;;;;;4958209;28;20129;-38
2023/12/21 09:41:24;;;;;;;26.48;4.47;;;13.10;99.90;;;;;;4965389;28;20050;-37
2023/12/21 09:43:52;;;;;;;14.32;4.05;;;13.30;99.90;;;;;;4957176;28;20479;-38
2023/12/21 09:46:20;;;;;;;16.73;4.15;;;12.80;99.90;;;;;;4962725;28;20042;-36
2023/12/21 09:48:47;;;;;;;13.48;3.28;;;12.90;99.90;;;;;;4964689;28;20038;-35
2023/12/21 09:51:15;;;;;;;12.88;3.28;;;12.30;99.90;;;;;;4970929;28;20041;-35
2023/12/21 09:53:43;;;;;;;16.00;3.88;;;12.30;99.90;;;;;;4967614;28;20526;-36
2023/12/21 09:56:12;;;;;;;16.25;4.68;;;12.30;99.90;;;;;;4965062;28;20046;-36
2023/12/21 09:58:39;;;;;;;17.42;4.88;;;12.20;99.90;;;;;;4966994;28;20530;-38
2023/12/21 10:01:04;;;;;;;13.18;4.18;;;12.70;99.90;;;;;;4969745;28;20134;-36
2023/12/21 10:03:32;;;;;;;14.40;3.20;;;12.40;99.90;;;;;;4969596;28;20118;-36
2023/12/21 10:05:58;;;;;;;17.13;4.22;;;13.10;99.90;;;;;;4971776;28;20093;-38
2023/12/21 10:08:24;;;;;;;17.92;3.97;;;12.60;99.90;;;;;;4972923;28;20057;-38
2023/12/21 10:10:49;;;;;;;12.93;2.90;;;12.40;99.90;;;;;;4969436;28;20042;-35
2023/12/21 10:13:16;;;;;;;11.57;2.83;;;12.50;99.90;;;;;;4974576;28;20494;-36
2023/12/21 10:15:42;;;;;;;16.33;3.05;;;12.50;99.90;;;;;;4972599;28;20422;-38
2023/12/21 10:18:09;;;;;;;20.92;3.80;;;12.60;99.90;;;;;;4986100;28;20050;-35
2023/12/21 10:20:35;;;;;;;11.45;3.28;;;12.60;99.90;;;;;;4970137;28;20419;-37
2023/12/21 10:23:01;;;;;;;13.23;3.47;;;13.10;99.90;;;;;;4971144;28;20035;-37
2023/12/21 10:25:27;;;;;;;16.80;4.10;;;13.20;99.90;;;;;;4972146;28;20130;-39
2023/12/21 10:27:56;;;;;;;20.00;3.63;;;12.80;99.90;;;;;;4973170;28;20035;-36
2023/12/21 10:30:23;;;;;;;15.15;3.33;;;12.70;99.90;;;;;;4972576;28;20035;-35
2023/12/21 10:32:52;;;;;;;17.67;4.25;;;13.60;99.90;;;;;;4973974;28;20046;-35
2023/12/21 10:35:19;;;;;;;17.60;3.70;;;12.30;99.90;;;;;;4971285;28;20047;-41
2023/12/21 10:37:47;;;;;;;18.65;3.38;;;12.50;99.90;;;;;;4969106;28;20039;-39
2023/12/21 10:40:14;;;;;;;18.08;4.20;;;12.60;99.90;;;;;;4972581;28;20055;-35
2023/12/21 10:42:43;;;;;;;13.55;3.97;;;12.70;99.90;;;;;;4973291;28;20081;-40
2023/12/21 10:45:13;;;;;;;17.83;4.38;;;12.50;99.90;;;;;;4972911;28;20097;-35
2023/12/21 10:47:46;;;;;;;12.07;3.33;;;12.60;99.90;;;;;;4971973;28;20418;-35
2023/12/21 10:50:13;;;;;;;16.42;4.65;;;12.40;99.90;;;;;;4970496;28;20061;-35
2023/12/21 10:52:40;;;;;;;17.08;4.28;;;12.90;99.90;;;;;;4971961;28;20174;-36
2023/12/21 10:55:10;;;;;;;13.75;4.10;;;12.70;99.90;;;;;;4969757;28;20034;-35
2023/12/21 10:57:40;;;;;;;14.90;3.72;;;12.70;99.90;;;;;;4972364;28;20081;-35
2023/12/21 11:00:15;;;;;;;14.18;4.13;;;12.60;99.90;;;;;;4969640;28;20043;-37
2023/12/21 11:02:45;;;;;;;13.57;4.25;;;12.60;99.90;;;;;;4972824;28;20038;-35
2023/12/21 11:05:19;;;;;;;17.08;4.25;;;12.80;99.90;;;;;;4967490;28;20047;-37
2023/12/21 11:07:47;;;;;;;18.38;3.60;;;12.60;99.90;;;;;;4972290;28;20087;-36
2023/12/21 11:10:13;;;;;;;18.30;3.63;;;13.00;99.90;;;;;;4972112;28;20053;-35
2023/12/21 11:12:39;;;;;;;15.82;4.10;;;12.40;99.90;;;;;;4973698;28;20046;-36
2023/12/21 11:15:04;;;;;;;13.25;3.72;;;12.60;99.90;;;;;;4971971;28;20035;-37
2023/12/21 11:17:32;;;;;;;22.92;4.90;;;12.40;99.90;;;;;;4971620;28;20141;-35
2023/12/21 11:19:58;;;;;;;17.10;4.43;;;12.10;99.90;;;;;;4972043;28;20074;-35
2023/12/21 11:22:27;;;;;;;19.00;4.10;;;12.40;99.90;;;;;;4971790;28;20039;-36
2023/12/21 11:25:03;;;;;;;16.42;4.10;;;12.80;99.90;;;;;;4971588;28;20097;-35
2023/12/21 11:27:30;;;;;;;19.42;4.40;;;12.40;99.90;;;;;;4967468;28;20042;-37
2023/12/21 11:30:06;;;;;;;17.90;3.75;;;;;;;;;;4962702;28;20429;-38
2023/12/21 11:32:32;;;;;;;19.52;4.85;;;12.70;99.90;;;;;;4969483;28;20133;-38
2023/12/21 11:34:58;;;;;;;18.70;4.13;;;12.60;99.90;;;;;;4972778;28;20129;-36
2023/12/21 11:37:25;;;;;;;16.90;3.70;;;12.80;99.90;;;;;;4966122;28;20035;-37
2023/12/21 11:39:57;;;;;;;16.83;4.03;;;13.10;99.90;;;;;;4968891;28;20034;-37
2023/12/21 11:42:33;;;;;;;18.02;3.83;;;13.30;99.90;;;;;;4964803;28;20046;-38
2023/12/21 11:45:03;;;;;;;27.05;4.80;;;12.30;99.90;;;;;;4971150;28;20403;-35
2023/12/21 11:47:31;;;;;;;15.65;3.80;;;;;;;;;;4968729;28;20121;-38
2023/12/21 11:50:06;;;;;;;17.67;4.85;;;12.20;99.90;;;;;;4969651;28;20062;-35
2023/12/21 11:52:31;;;;;;;17.05;4.85;;;12.70;99.90;;;;;;4970534;28;20050;-34
2023/12/21 11:54:57;;;;;;;18.40;4.75;;;12.70;99.90;;;;;;4970242;28;20031;-35
2023/12/21 11:57:31;;;;;;;15.63;3.83;;;12.50;99.90;;;;;;4969329;28;20045;-35
2023/12/21 12:00:15;;;;;;;20.15;4.28;;;12.50;99.90;;;;;;4971034;28;20037;-37
2023/12/21 12:02:44;;;;;;;16.25;4.05;;;13.20;99.90;;;;;;4970037;28;20434;-38
2023/12/21 12:05:11;;;;;;;22.25;5.90;;;12.80;99.90;;;;;;4966040;28;20038;-36
2023/12/21 12:07:37;;;;;;;17.23;4.95;;;12.30;99.90;;;;;;4968175;28;20043;-35
2023/12/21 12:10:03;;;;;;;21.42;5.30;;;12.70;99.90;;;;;;4965267;28;20034;-35
2023/12/21 12:12:29;;;;;;;22.23;5.22;;;12.10;99.90;;;;;;4964056;28;20039;-35
2023/12/21 12:14:55;;;;;;;12.45;3.70;;;12.70;99.90;;;;;;4966827;28;20382;-35
2023/12/21 12:17:20;;;;;;;19.30;4.25;;;12.60;99.90;;;;;;4969492;28;20038;-35
2023/12/21 12:19:46;;;;;;;19.23;4.28;;;12.80;99.90;;;;;;4963228;28;20113;-35
2023/12/21 12:22:12;;;;;;;20.90;4.72;;;13.00;99.90;;;;;;4966436;28;20045;-38
2023/12/21 12:24:39;;;;;;;15.55;3.78;;;12.50;99.90;;;;;;4970618;28;20528;-37
2023/12/21 12:27:05;;;;;;;12.70;3.92;;;12.70;99.90;;;;;;4968657;28;20050;-38
2023/12/21 12:29:31;;;;;;;13.82;3.75;;;12.50;99.90;;;;;;4968216;28;20561;-38
2023/12/21 12:31:56;;;;;;;21.48;5.07;;;12.80;99.90;;;;;;4964376;28;20039;-38
2023/12/21 12:34:23;;;;;;;19.95;5.53;;;12.20;99.90;;;;;;4970018;28;20050;-35
2023/12/21 12:36:55;;;;;;;18.02;5.07;;;12.20;99.90;;;;;;4966773;28;20039;-38
2023/12/21 12:39:27;;;;;;;19.10;4.55;;;12.50;99.90;;;;;;4969373;28;20532;-35